Time;durP1;ratioP1;P1;durP2;ratioP2;P2;SDS_P1;SDS_P2;PMS_P1;PMS_P2;Temp;Humidity;BMP_temperature;BMP_pressure;BME280_temperature;BME280_humidity;BME280_pressure;Samples;Min_cycle;Max_cycle;Signal;HPM_P1;HPM_P2
2022/01/01 09:21:39;;;;;;;;;8.50;8.50;;;;;;;;3;130608586;139556487;-89
2022/01/01 10:23:15;;;;;;;;;10.50;10.50;;;;;;;;3;130555648;139570506;-85
2022/01/01 10:30:03;;;;;;;;;;;;;;;;;;3;117051778;130558044;-87
2022/01/01 10:43:38;;;;;;;;;6.50;6.50;;;;;;;;3;130565008;139579169;-91
2022/01/01 10:50:19;;;;;;;;;22.50;11.50;;;;;;;;3;130554462;139566540;-89
2022/01/01 10:56:47;;;;;;;;;;;;;;;;;;3;117048218;130555237;-90
2022/01/01 11:03:07;;;;;;;;;16.00;14.00;;;;;;;;3;117062563;130555839;-91
2022/01/01 11:09:35;;;;;;;;;3.50;3.50;;;;;;;;3;130483285;139556842;-91
2022/01/01 11:16:19;;;;;;;;;12.50;6.00;;;;;;;;3;130554186;138844926;-90
2022/01/01 11:22:46;;;;;;;;;;;;;;;;;;3;117048813;130555366;-90
2022/01/01 11:29:04;;;;;;;;;13.50;13.50;;;;;;;;3;117063047;130556029;-91
2022/01/01 11:35:37;;;;;;;;;14.50;10.50;;;;;;;;3;130564216;139557154;-92
2022/01/01 11:42:18;;;;;;;;;5.00;5.00;;;;;;;;3;130555287;139569005;-90
2022/01/01 11:48:46;;;;;;;;;;;;;;;;;;3;117047732;130553609;-90
2022/01/01 11:55:11;;;;;;;;;8.50;8.50;;;;;;;;3;117061553;130554648;-89
2022/01/01 12:01:40;;;;;;;;;8.50;5.00;;;;;;;;3;130561961;139557933;-91
2022/01/01 12:08:40;;;;;;;;;3.50;3.50;;;;;;;;3;130555157;139567791;-92
2022/01/01 12:15:07;;;;;;;;;;;;;;;;;;3;117049200;130554695;-90
2022/01/01 12:21:27;;;;;;;;;22.50;10.00;;;;;;;;3;117062710;130555023;-90
2022/01/01 12:27:57;;;;;;;;;6.50;6.50;;;;;;;;3;130564113;139558425;-91
2022/01/01 12:34:38;;;;;;;;;5.50;5.50;;;;;;;;3;130477822;139568654;-90
2022/01/01 12:41:05;;;;;;;;;;;;;;;;;;3;117050735;130554779;-90
2022/01/01 12:47:24;;;;;;;;;13.00;13.00;;;;;;;;3;117062204;130555082;-90
2022/01/01 12:54:02;;;;;;;;;9.50;9.50;;;;;;;;3;130563579;139554565;-90
2022/01/01 13:00:43;;;;;;;;;13.50;13.50;;;;;;;;3;130554987;139566028;-91
2022/01/01 13:07:10;;;;;;;;;;;;;;;;;;3;117052260;130556870;-91
2022/01/01 13:20:28;;;;;;;;;6.00;6.00;;;;;;;;3;130560446;139138667;-92
2022/01/01 13:27:09;;;;;;;;;4.00;4.00;;;;;;;;3;130558382;139569526;-88
2022/01/01 13:33:36;;;;;;;;;;;;;;;;;;3;117051680;130555478;-90
2022/01/01 13:39:58;;;;;;;;;9.00;9.00;;;;;;;;3;117064446;130558965;-88
2022/01/01 13:46:29;;;;;;;;;4.50;4.50;;;;;;;;3;130563382;139560442;-88
2022/01/01 13:53:14;;;;;;;;;5.50;5.50;;;;;;;;3;130557161;139570239;-88
2022/01/01 13:59:41;;;;;;;;;;;;;;;;;;3;117049152;130347286;-88
2022/01/01 14:06:00;;;;;;;;;13.50;9.50;;;;;;;;3;117064425;130555084;-88
2022/01/01 14:12:29;;;;;;;;;15.00;4.00;;;;;;;;3;130565425;139561546;-89
2022/01/01 14:19:14;;;;;;;;;5.00;5.00;;;;;;;;3;130556044;139568091;-88
2022/01/01 14:25:41;;;;;;;;;;;;;;;;;;3;117049786;130555993;-89
2022/01/01 14:32:02;;;;;;;;;6.00;6.00;;;;;;;;3;117063309;130555532;-89
2022/01/01 14:38:30;;;;;;;;;5.00;5.00;;;;;;;;3;130564382;139559787;-88
2022/01/01 14:45:11;;;;;;;;;8.00;8.00;;;;;;;;3;130554437;139568145;-89
2022/01/01 14:51:38;;;;;;;;;;;;;;;;;;3;117049452;130555371;-89
2022/01/01 14:57:59;;;;;;;;;7.50;7.50;;;;;;;;3;117059744;130554077;-88
2022/01/01 15:04:27;;;;;;;;;8.50;4.50;;;;;;;;3;130560395;139554830;-88
2022/01/01 15:11:08;;;;;;;;;5.50;5.50;;;;;;;;3;130553866;139569003;-89
2022/01/01 15:17:36;;;;;;;;;;;;;;;;;;3;117051199;130347564;-88
2022/01/01 15:23:55;;;;;;;;;12.00;12.00;;;;;;;;3;117064851;130556019;-88
2022/01/01 15:30:44;;;;;;;;;4.50;4.50;;;;;;;;3;130563177;139558576;-86
2022/01/01 15:37:26;;;;;;;;;7.50;3.50;;;;;;;;3;130556129;139565078;-87
2022/01/01 15:44:01;;;;;;;;;;;;;;;;;;3;117051143;130554936;-87
2022/01/01 15:50:20;;;;;;;;;5.50;5.50;;;;;;;;3;117061532;130557242;-87
2022/01/01 15:56:57;;;;;;;;;7.00;7.00;;;;;;;;3;130475480;139559286;-89
2022/01/01 16:03:41;;;;;;;;;5.00;5.00;;;;;;;;3;130556380;139567358;-87
2022/01/01 16:10:08;;;;;;;;;;;;;;;;;;3;117051848;130555452;-87
2022/01/01 16:16:31;;;;;;;;;18.00;6.50;;;;;;;;3;117064918;130557794;-86
2022/01/01 16:22:59;;;;;;;;;3.00;3.00;;;;;;;;3;130565349;139559755;-86
2022/01/01 16:29:50;;;;;;;;;6.00;6.00;;;;;;;;3;130557493;139569256;-87
2022/01/01 16:36:17;;;;;;;;;;;;;;;;;;3;117050729;130430043;-88
2022/01/01 16:42:56;;;;;;;;;8.00;8.00;;;;;;;;3;117063883;130555869;-88
2022/01/01 16:49:32;;;;;;;;;5.50;5.50;;;;;;;;3;130564300;139559543;-88
2022/01/01 16:56:15;;;;;;;;;9.50;9.50;;;;;;;;3;130556811;139567044;-88
2022/01/01 17:02:43;;;;;;;;;;;;;;;;;;3;117049132;130555299;-87
2022/01/01 17:09:02;;;;;;;;;10.00;10.00;;;;;;;;3;117063504;130555490;-88
2022/01/01 17:15:30;;;;;;;;;3.50;3.50;;;;;;;;3;130563331;139556452;-88
2022/01/01 17:22:24;;;;;;;;;5.50;5.50;;;;;;;;3;130553557;139567149;-87
2022/01/01 17:29:02;;;;;;;;;;;;;;;;;;3;117048082;130556374;-87
2022/01/01 17:35:38;;;;;;;;;12.50;12.50;;;;;;;;3;117062902;130554894;-89
2022/01/01 17:42:09;;;;;;;;;7.50;7.50;;;;;;;;3;130565487;139560065;-88
2022/01/01 17:48:52;;;;;;;;;8.00;8.00;;;;;;;;3;130554125;139567716;-88
2022/01/01 17:55:20;;;;;;;;;;;;;;;;;;3;117049585;130554825;-87
2022/01/01 18:01:40;;;;;;;;;29.50;21.00;;;;;;;;3;117064141;130556408;-88
2022/01/01 18:08:12;;;;;;;;;12.00;9.00;;;;;;;;3;130559096;139559361;-87
2022/01/01 18:14:54;;;;;;;;;19.50;11.50;;;;;;;;3;130555728;139565376;-87
2022/01/01 18:21:22;;;;;;;;;;;;;;;;;;3;117048588;130554790;-87
2022/01/01 18:27:47;;;;;;;;;15.00;15.00;;;;;;;;3;117063094;130553430;-88
2022/01/01 18:34:14;;;;;;;;;25.00;13.00;;;;;;;;3;130565348;139558075;-88
2022/01/01 18:40:55;;;;;;;;;11.00;7.00;;;;;;;;3;130555647;139566224;-88
2022/01/01 18:47:24;;;;;;;;;29.00;26.00;;;;;;;;3;117050375;130556156;-88
2022/01/01 18:53:53;;;;;;;;;22.00;19.00;;;;;;;;3;117064336;130557599;-88
2022/01/01 19:00:22;;;;;;;;;24.50;12.50;;;;;;;;3;130566394;139560543;-88
2022/01/01 19:07:03;;;;;;;;;9.00;9.00;;;;;;;;3;130554545;139568254;-88
2022/01/01 19:13:30;;;;;;;;;;;;;;;;;;3;117051463;130554157;-88
2022/01/01 19:19:49;;;;;;;;;41.50;22.00;;;;;;;;3;117061998;130462125;-87
2022/01/01 19:26:17;;;;;;;;;46.50;14.00;;;;;;;;3;130563732;139556565;-87
2022/01/01 19:32:59;;;;;;;;;14.00;14.00;;;;;;;;3;130554600;139566032;-87
2022/01/01 19:39:26;;;;;;;;;;;;;;;;;;3;117050738;130555129;-88
2022/01/01 19:45:44;;;;;;;;;31.50;19.50;;;;;;;;3;117064316;130555720;-88
2022/01/01 19:52:12;;;;;;;;;11.00;11.00;;;;;;;;3;130565999;139524435;-88
2022/01/01 19:58:53;;;;;;;;;31.50;15.50;;;;;;;;3;130317593;139567866;-89
2022/01/01 20:05:23;;;;;;;;;;;;;;;;;;3;117049111;130555765;-88
2022/01/01 20:11:42;;;;;;;;;18.50;18.50;;;;;;;;3;117065214;130554463;-89
2022/01/01 20:18:10;;;;;;;;;19.00;13.50;;;;;;;;3;130564713;139560788;-89
2022/01/01 20:24:51;;;;;;;;;17.00;17.00;;;;;;;;3;130555253;139563901;-88
2022/01/01 20:31:17;;;;;;;;;;;;;;;;;;3;116627217;130553448;-88
2022/01/01 20:37:35;;;;;;;;;23.00;23.00;;;;;;;;3;116082369;130556516;-88
2022/01/01 20:44:03;;;;;;;;;40.50;29.50;;;;;;;;3;130564192;139559091;-89
2022/01/01 20:50:44;;;;;;;;;23.50;13.00;;;;;;;;3;130554059;139566457;-88
2022/01/01 20:57:11;;;;;;;;;;;;;;;;;;3;117050659;130554973;-88
2022/01/01 21:03:34;;;;;;;;;27.50;27.50;;;;;;;;3;117064475;130555246;-88
2022/01/01 21:10:34;;;;;;;;;18.00;15.00;;;;;;;;3;130562271;139559568;-86
2022/01/01 21:17:25;;;;;;;;;;;;;;;;;;;;;
2022/01/01 21:23:55;;;;;;;;;;;;;;;;;;3;117078201;130556485;-85
2022/01/01 21:31:54;;;;;;;;;19.00;19.00;;;;;;;;3;117062384;130554076;-86
2022/01/01 21:38:23;;;;;;;;;20.00;15.00;;;;;;;;3;130481124;139558720;-87
2022/01/01 21:45:10;;;;;;;;;17.50;17.50;;;;;;;;3;130550686;139561252;-85
2022/01/01 21:51:37;;;;;;;;;;;;;;;;;;3;117045187;130554747;-87
2022/01/01 21:57:58;;;;;;;;;34.00;25.50;;;;;;;;3;117064250;130554573;-88
2022/01/01 22:11:44;;;;;;;;;14.00;14.00;;;;;;;;3;130556333;139567094;-86
2022/01/01 22:18:11;;;;;;;;;;;;;;;;;;3;117049845;130552752;-86
2022/01/01 22:24:33;;;;;;;;;38.00;26.50;;;;;;;;3;117064969;130555685;-87
2022/01/01 22:31:00;;;;;;;;;38.00;21.50;;;;;;;;3;130562864;139557431;-87
2022/01/01 22:37:41;;;;;;;;;19.50;12.50;;;;;;;;3;130554687;139570610;-86
2022/01/01 22:44:09;;;;;;;;;;;;;;;;;;3;117049791;130553794;-86
2022/01/01 22:50:27;;;;;;;;;24.50;24.50;;;;;;;;3;117064150;130555658;-85
2022/01/01 22:56:55;;;;;;;;;13.00;13.00;;;;;;;;3;130561957;139559385;-85
2022/01/01 23:03:36;;;;;;;;;9.50;9.50;;;;;;;;3;130557074;139568840;-85
2022/01/01 23:10:02;;;;;;;;;;;;;;;;;;3;117049717;130557056;-85
2022/01/01 23:16:28;;;;;;;;;25.00;25.00;;;;;;;;3;117065978;130556441;-86
2022/01/01 23:22:57;;;;;;;;;20.50;20.50;;;;;;;;3;130564335;139557843;-85
2022/01/01 23:29:38;;;;;;;;;16.50;16.50;;;;;;;;3;130556275;139566627;-85
2022/01/01 23:36:06;;;;;;;;;;;;;;;;;;3;117048682;130557362;-85
2022/01/01 23:42:25;;;;;;;;;21.50;21.50;;;;;;;;3;117061219;130553479;-86
2022/01/01 23:48:51;;;;;;;;;17.00;9.50;;;;;;;;3;130564671;139561175;-86
2022/01/01 23:55:33;;;;;;;;;12.50;12.50;;;;;;;;3;130552927;139566009;-86
